createdAt,value
2023-02-03T00:00:48.460Z,2.78
2023-02-03T00:02:49.942Z,2.65
2023-02-03T00:04:51.485Z,2.65
2023-02-03T00:06:53.036Z,2.56
2023-02-03T00:08:55.445Z,2.52
2023-02-03T00:10:56.982Z,2.50
2023-02-03T00:12:58.433Z,2.50
2023-02-03T00:14:59.896Z,2.60
2023-02-03T00:17:01.381Z,2.59
2023-02-03T00:19:03.107Z,2.59
2023-02-03T00:21:04.860Z,2.56
2023-02-03T00:23:07.146Z,2.59
2023-02-03T00:25:08.936Z,2.57
2023-02-03T00:27:10.410Z,2.58
2023-02-03T00:29:11.934Z,2.49
2023-02-03T00:31:20.328Z,2.44
2023-02-03T00:33:21.908Z,2.44
2023-02-03T00:35:23.699Z,2.44
2023-02-03T00:37:25.166Z,2.48
2023-02-03T00:39:26.652Z,2.44
2023-02-03T00:41:29.117Z,2.45
2023-02-03T00:43:30.620Z,2.51
2023-02-03T00:45:32.204Z,2.51
2023-02-03T00:47:33.731Z,2.48
2023-02-03T00:49:35.238Z,2.42
2023-02-03T00:51:36.799Z,2.41
2023-02-03T00:53:38.332Z,2.41
2023-02-03T00:55:39.770Z,2.43
2023-02-03T00:57:41.301Z,2.41
2023-02-03T00:59:42.831Z,2.39
2023-02-03T01:01:44.331Z,2.44
2023-02-03T01:03:45.879Z,2.34
2023-02-03T01:05:47.357Z,2.41
2023-02-03T01:07:48.930Z,2.39
2023-02-03T01:09:50.431Z,2.41
2023-02-03T01:11:51.948Z,2.33
2023-02-03T01:13:54.429Z,2.38
2023-02-03T01:15:55.925Z,2.46
2023-02-03T01:17:57.392Z,2.38
2023-02-03T01:19:58.950Z,2.33
2023-02-03T01:22:00.435Z,2.31
2023-02-03T01:24:02.081Z,2.42
2023-02-03T01:26:07.185Z,2.28
2023-02-03T01:28:08.672Z,2.30
2023-02-03T01:30:10.633Z,2.31
2023-02-03T01:32:12.070Z,2.28
2023-02-03T01:34:14.375Z,2.30
2023-02-03T01:36:16.863Z,2.21
2023-02-03T10:11:49.893Z,3.76
2023-02-03T10:14:00.464Z,3.30
2023-02-03T10:16:01.907Z,3.51
2023-02-03T10:18:23.524Z,3.62
2023-02-03T10:20:45.402Z,3.56
2023-02-03T10:22:54.454Z,3.74
2023-02-03T10:25:08.337Z,4.09
2023-02-03T10:27:14.106Z,4.17
2023-02-03T10:29:18.770Z,4.23
2023-02-03T10:31:21.410Z,4.13
2023-02-03T10:33:25.337Z,4.00
2023-02-03T10:35:35.801Z,4.11
2023-02-03T10:37:38.362Z,4.14
2023-02-03T10:39:41.087Z,4.18
2023-02-03T10:41:42.552Z,4.10
2023-02-03T10:43:53.082Z,4.05
2023-02-03T10:45:54.591Z,4.15
2023-02-03T10:47:56.118Z,4.15
2023-02-03T10:49:57.830Z,4.06
2023-02-03T10:52:02.267Z,3.99
2023-02-03T10:54:03.810Z,3.94
2023-02-03T10:56:08.445Z,3.96
2023-02-03T10:58:11.530Z,3.78
2023-02-03T11:00:32.051Z,3.35
2023-02-03T11:02:33.486Z,3.02
2023-02-03T11:04:35.142Z,3.15
2023-02-03T11:06:36.842Z,3.12
2023-02-03T11:08:39.903Z,3.22
2023-02-03T11:10:43.278Z,3.12
2023-02-03T11:12:44.953Z,3.23
2023-02-03T11:14:49.989Z,3.39
2023-02-03T11:16:51.466Z,3.46
2023-02-03T11:18:54.372Z,3.52
2023-02-03T11:20:55.913Z,3.52
2023-02-03T11:22:57.349Z,3.49
2023-02-03T11:24:58.947Z,3.68
2023-02-03T11:27:10.572Z,3.73
2023-02-03T11:29:23.957Z,3.76
2023-02-03T11:31:26.682Z,4.13
2023-02-03T11:33:28.815Z,4.39
2023-02-03T11:35:31.760Z,4.56
2023-02-03T11:37:38.019Z,4.64
2023-02-03T11:39:39.765Z,4.72
2023-02-03T11:41:41.329Z,4.71
2023-02-03T11:43:43.058Z,4.52
2023-02-03T11:45:45.310Z,4.50
2023-02-03T11:47:46.822Z,4.35
2023-02-03T11:49:57.038Z,4.29
2023-02-03T11:52:21.629Z,4.48
2023-02-03T11:54:41.203Z,4.45
2023-02-03T11:56:48.971Z,4.66
2023-02-03T11:58:53.496Z,4.75
2023-02-03T12:00:57.629Z,4.63
2023-02-03T12:03:05.010Z,4.66
2023-02-03T12:05:18.574Z,4.19
2023-02-03T12:07:20.020Z,3.95
2023-02-03T12:09:22.813Z,3.90
2023-02-03T12:11:24.592Z,3.78
2023-02-03T12:13:38.106Z,3.34
2023-02-03T12:15:57.682Z,3.15
2023-02-03T12:18:10.688Z,3.04
2023-02-03T12:20:17.982Z,3.07
2023-02-03T12:22:25.476Z,3.10
2023-02-03T12:24:45.635Z,3.12
2023-02-03T12:27:05.909Z,3.29
2023-02-03T12:29:11.974Z,3.38
2023-02-03T12:31:29.495Z,3.52
2023-02-03T12:33:32.185Z,3.56
2023-02-03T12:35:35.188Z,3.47
2023-02-03T12:37:48.972Z,3.08
2023-02-03T12:39:54.140Z,3.25
2023-02-03T12:41:58.540Z,3.29
2023-02-03T12:44:01.525Z,3.02
2023-02-03T12:46:14.252Z,3.15
2023-02-03T12:48:17.908Z,3.22
2023-02-03T12:50:40.776Z,3.34
2023-02-03T12:52:47.552Z,3.46
2023-02-03T12:54:50.963Z,3.31
2023-02-03T12:56:52.829Z,3.22
2023-02-03T12:59:07.076Z,3.29
2023-02-03T13:01:08.577Z,3.38
2023-02-03T13:03:12.936Z,3.12
2023-02-03T13:05:23.729Z,3.22
2023-02-03T13:07:45.449Z,3.42
2023-02-03T13:09:52.331Z,3.43
2023-02-03T13:12:00.203Z,3.36
2023-02-03T13:14:13.256Z,3.34
2023-02-03T13:16:14.847Z,3.40
2023-02-03T13:18:22.370Z,3.54
2023-02-03T13:20:24.965Z,3.40
2023-02-03T13:22:26.736Z,3.27
2023-02-03T13:24:28.410Z,3.27
2023-02-03T13:26:46.811Z,3.22
2023-02-03T13:28:53.124Z,3.25
2023-02-03T13:30:54.885Z,3.28
2023-02-03T13:32:57.396Z,3.42
2023-02-03T13:35:34.286Z,3.47
2023-02-03T13:37:43.149Z,3.42
2023-02-03T13:40:03.469Z,3.37
2023-02-03T13:42:07.874Z,3.10
2023-02-03T13:44:12.974Z,3.21
2023-02-03T13:46:22.314Z,3.02
2023-02-03T13:48:27.785Z,2.99
2023-02-03T13:50:30.253Z,3.03
2023-02-03T13:52:52.367Z,3.08
2023-02-03T13:54:54.975Z,3.14
2023-02-03T13:57:02.227Z,3.15
2023-02-03T13:59:05.296Z,3.12
2023-02-03T14:01:25.391Z,3.04
2023-02-03T14:03:26.964Z,2.94
2023-02-03T14:05:38.550Z,3.08
2023-02-03T14:07:40.245Z,3.22
2023-02-03T14:09:42.040Z,3.27
2023-02-03T14:11:44.483Z,3.37
2023-02-03T14:13:46.032Z,3.40
2023-02-03T14:15:48.957Z,3.39
2023-02-03T14:17:50.653Z,3.39
2023-02-03T14:19:52.319Z,3.33
2023-02-03T14:22:16.193Z,3.11
2023-02-03T14:24:17.900Z,3.22
2023-02-03T14:26:21.154Z,3.21
2023-02-03T14:28:26.909Z,3.21
2023-02-03T14:30:28.462Z,3.33
2023-02-03T14:32:47.982Z,3.42
2023-02-03T14:34:49.614Z,3.50
2023-02-03T14:36:53.247Z,3.47
2023-02-03T14:38:54.878Z,3.49
2023-02-03T14:40:57.091Z,3.48
2023-02-03T14:43:11.615Z,3.47
2023-02-03T14:45:19.525Z,3.37
2023-02-03T14:47:23.953Z,3.40
2023-02-03T14:49:29.086Z,3.47
2023-02-03T14:51:30.556Z,3.36
2023-02-03T14:53:50.585Z,3.25
2023-02-03T14:55:52.019Z,3.23
2023-02-03T14:57:54.579Z,3.28
2023-02-03T15:00:05.774Z,3.30
2023-02-03T15:02:09.084Z,3.35
2023-02-03T15:04:13.668Z,3.33
2023-02-03T15:06:35.092Z,3.44
2023-02-03T15:08:59.729Z,3.44
2023-02-03T15:11:01.346Z,3.41
2023-02-03T15:13:02.976Z,3.43
2023-02-03T15:15:14.517Z,3.38
2023-02-03T15:17:24.110Z,3.28
2023-02-03T15:19:26.973Z,3.31
2023-02-03T15:21:28.533Z,3.28
2023-02-03T15:23:31.329Z,3.32
2023-02-03T15:25:33.180Z,3.34
2023-02-03T15:27:34.747Z,3.35
2023-02-03T15:29:36.576Z,3.27
2023-02-03T15:31:41.900Z,3.35
2023-02-03T15:33:44.711Z,3.31
2023-02-03T15:35:46.183Z,3.35
2023-02-03T15:37:51.800Z,3.28
2023-02-03T15:39:53.281Z,3.24
2023-02-03T15:41:54.959Z,3.25
2023-02-03T15:43:57.028Z,3.26
2023-02-03T15:46:07.475Z,3.30
2023-02-03T15:48:13.965Z,3.21
2023-02-03T15:50:45.012Z,3.19
2023-02-03T15:52:46.588Z,3.15
2023-02-03T15:54:54.030Z,3.11
2023-02-03T15:56:59.505Z,3.02
2023-02-03T15:59:00.934Z,2.98
2023-02-03T16:01:08.241Z,2.94
2023-02-03T16:03:21.616Z,3.04
2023-02-03T16:05:29.736Z,3.01
2023-02-03T16:07:31.366Z,2.98
2023-02-03T16:09:34.033Z,2.93
2023-02-03T16:11:36.480Z,2.91
2023-02-03T16:13:42.955Z,2.93
2023-02-03T16:15:44.419Z,2.91
2023-02-03T16:17:46.246Z,2.96
2023-02-03T16:19:51.494Z,2.93
2023-02-03T16:21:54.063Z,2.90
2023-02-03T16:23:55.688Z,2.73
2023-02-03T16:26:03.020Z,2.58
2023-02-03T16:28:36.357Z,2.64
2023-02-03T16:30:56.452Z,2.69
2023-02-03T16:33:21.350Z,2.69
2023-02-03T16:35:41.535Z,2.44
2023-02-03T16:38:02.693Z,2.59
2023-02-03T16:40:23.258Z,2.60
2023-02-03T16:42:43.364Z,2.60
2023-02-03T16:45:03.491Z,2.60
2023-02-03T16:47:27.926Z,2.67
2023-02-03T16:49:48.020Z,2.71
2023-02-03T16:51:49.459Z,2.68
2023-02-03T16:53:51.030Z,2.51
2023-02-03T16:55:53.214Z,2.45
2023-02-03T16:57:54.717Z,2.41
2023-02-03T16:59:56.243Z,2.42
2023-02-03T17:01:57.927Z,2.40
2023-02-03T17:03:59.449Z,2.23
2023-02-03T17:06:08.328Z,2.33
2023-02-03T17:08:09.798Z,2.41
2023-02-03T17:10:11.273Z,2.44
2023-02-03T17:12:12.813Z,2.43
2023-02-03T17:14:14.587Z,2.50
2023-02-03T17:16:17.130Z,2.57
2023-02-03T17:18:18.901Z,2.61
2023-02-03T17:20:20.515Z,2.70
2023-02-03T17:22:21.976Z,2.75
2023-02-03T17:24:24.625Z,2.80
2023-02-03T17:26:26.061Z,2.77
2023-02-03T17:28:27.479Z,2.80
2023-02-03T17:30:29.208Z,2.85
2023-02-03T17:32:30.682Z,2.60
2023-02-03T17:34:32.144Z,2.48
2023-02-03T17:36:33.621Z,2.56
2023-02-03T17:54:58.313Z,3.08
2023-02-03T17:56:59.794Z,3.16
2023-02-03T17:59:02.238Z,3.15
2023-02-03T18:01:17.665Z,3.07
2023-02-03T18:03:19.176Z,3.10
2023-02-03T18:05:20.719Z,3.14
2023-02-03T18:07:22.266Z,3.12
2023-02-03T18:09:23.762Z,3.19
2023-02-03T18:11:25.263Z,3.21
2023-02-03T18:13:27.707Z,3.29
2023-02-03T18:15:29.204Z,3.36
2023-02-03T18:17:30.687Z,3.40
2023-02-03T18:19:32.246Z,3.40
2023-02-03T18:21:34.224Z,3.42
2023-02-03T18:23:35.952Z,3.50
2023-02-03T18:25:37.523Z,3.47
2023-02-03T18:27:39.027Z,3.44
2023-02-03T18:29:40.975Z,3.36
2023-02-03T18:31:44.127Z,3.43
2023-02-03T18:33:46.636Z,3.44
2023-02-03T18:35:48.106Z,3.49
2023-02-03T18:37:49.652Z,3.47
2023-02-03T18:39:51.128Z,3.48
2023-02-03T18:41:52.671Z,3.52
2023-02-03T18:43:54.190Z,3.48
2023-02-03T18:45:55.715Z,3.49
2023-02-03T18:47:57.226Z,3.45
2023-02-03T18:49:58.689Z,3.45
2023-02-03T18:52:00.194Z,3.46
2023-02-03T18:54:01.639Z,3.49
2023-02-03T18:56:05.438Z,3.44
2023-02-03T18:58:07.554Z,3.43
2023-02-03T19:00:09.282Z,3.40
2023-02-03T19:02:11.021Z,3.27
2023-02-03T19:04:14.122Z,3.22
2023-02-03T19:06:15.701Z,3.26
2023-02-03T19:08:17.932Z,3.25
2023-02-03T19:10:19.460Z,3.34
2023-02-03T19:12:21.062Z,3.33
2023-02-03T19:14:23.581Z,3.31
2023-02-03T19:16:25.043Z,3.40
2023-02-03T19:18:26.591Z,3.47
2023-02-03T19:20:28.349Z,3.42
2023-02-03T19:22:30.169Z,3.41
2023-02-03T19:24:31.633Z,3.49
2023-02-03T19:26:33.117Z,3.54
2023-02-03T19:28:35.508Z,3.40
2023-02-03T19:30:37.232Z,3.40
2023-02-03T19:32:38.708Z,3.44
2023-02-03T19:34:40.232Z,3.51
2023-02-03T19:36:41.726Z,3.49
2023-02-03T19:38:43.272Z,3.50
2023-02-03T19:40:45.651Z,3.60
2023-02-03T19:42:47.145Z,3.58
2023-02-03T19:44:51.013Z,3.65
2023-02-03T19:46:52.573Z,3.77
2023-02-03T19:48:53.996Z,3.84
2023-02-03T19:50:55.458Z,3.91
2023-02-03T19:52:56.903Z,3.87
2023-02-03T19:54:58.460Z,3.91
2023-02-03T19:56:59.914Z,3.92
2023-02-03T19:59:01.399Z,3.82
2023-02-03T20:01:02.904Z,3.81
2023-02-03T20:03:04.430Z,3.88
2023-02-03T20:05:06.058Z,3.95
2023-02-03T20:07:07.744Z,4.01
2023-02-03T20:09:09.306Z,4.03
2023-02-03T20:11:10.882Z,4.06
2023-02-03T20:13:12.885Z,4.12
2023-02-03T20:15:14.395Z,4.08
2023-02-03T20:17:15.854Z,3.69
2023-02-03T20:19:18.725Z,3.21
2023-02-03T20:21:20.230Z,2.68
2023-02-03T20:23:22.443Z,2.71
2023-02-03T20:25:24.089Z,2.70
2023-02-03T20:27:25.689Z,2.76
2023-02-03T20:29:27.178Z,2.84
2023-02-03T20:31:28.729Z,2.74
2023-02-03T20:33:30.476Z,2.78
2023-02-03T20:35:32.151Z,2.77
2023-02-03T20:37:36.131Z,2.62
2023-02-03T20:39:37.802Z,2.74
2023-02-03T20:41:39.251Z,2.85
2023-02-03T20:43:41.273Z,2.91
2023-02-03T20:45:42.800Z,2.94
2023-02-03T20:47:44.478Z,2.89
2023-02-03T20:49:46.129Z,2.88
2023-02-03T20:51:47.559Z,2.91
2023-02-03T20:53:50.061Z,2.93
2023-02-03T20:55:52.202Z,2.91
2023-02-03T20:57:56.372Z,2.91
2023-02-03T20:59:57.863Z,2.90
2023-02-03T21:02:07.886Z,2.77
2023-02-03T21:04:31.659Z,2.72
2023-02-03T21:06:33.700Z,2.73
2023-02-03T21:08:35.241Z,2.75
2023-02-03T21:10:37.129Z,2.69
2023-02-03T21:12:38.650Z,2.58
2023-02-03T21:14:43.810Z,2.58
2023-02-03T21:16:47.662Z,2.44
2023-02-03T21:18:49.915Z,2.40
2023-02-03T21:20:51.433Z,2.46
2023-02-03T21:22:53.395Z,2.48
2023-02-03T21:24:57.133Z,2.52
2023-02-03T21:26:59.366Z,2.60
2023-02-03T21:29:01.092Z,2.62
2023-02-03T21:31:02.624Z,2.58
2023-02-03T21:33:15.882Z,2.53
2023-02-03T21:35:23.814Z,2.54
2023-02-03T21:37:41.431Z,2.58
2023-02-03T21:39:42.951Z,2.62
2023-02-03T21:41:44.419Z,2.63
2023-02-03T21:43:47.194Z,2.69
2023-02-03T21:45:48.756Z,2.69
2023-02-03T21:47:51.503Z,2.70
2023-02-03T21:49:53.065Z,2.76
2023-02-03T21:51:54.629Z,2.82
2023-02-03T21:53:57.102Z,2.83
2023-02-03T21:56:17.381Z,2.82
2023-02-03T21:58:21.413Z,2.83
2023-02-03T22:00:36.761Z,2.84
2023-02-03T22:02:44.453Z,2.84
2023-02-03T22:04:46.005Z,2.86
2023-02-03T22:06:49.315Z,2.86
2023-02-03T22:08:51.934Z,2.85
2023-02-03T22:10:53.344Z,2.83
2023-02-03T22:12:54.800Z,2.59
2023-02-03T22:14:56.327Z,2.49
2023-02-03T22:16:57.890Z,2.52
2023-02-03T22:18:59.427Z,2.60
2023-02-03T22:21:01.016Z,2.71
2023-02-03T22:23:02.589Z,2.79
2023-02-03T22:25:04.135Z,2.71
2023-02-03T22:27:06.393Z,2.58
2023-02-03T22:29:07.955Z,2.61
2023-02-03T22:31:10.650Z,2.49
2023-02-03T22:33:12.345Z,2.40
2023-02-03T22:35:13.852Z,2.53
2023-02-03T22:37:15.319Z,2.59
2023-02-03T22:39:16.844Z,2.58
2023-02-03T22:41:20.313Z,2.43
2023-02-03T22:43:21.794Z,2.32
2023-02-03T22:45:23.334Z,2.43
2023-02-03T22:47:26.386Z,2.54
2023-02-03T22:49:27.858Z,2.56
2023-02-03T22:51:29.409Z,2.40
2023-02-03T22:53:30.943Z,2.24
2023-02-03T22:55:32.472Z,2.28
2023-02-03T22:57:34.996Z,2.34
2023-02-03T22:59:36.467Z,2.32
2023-02-03T23:01:37.911Z,2.20
2023-02-03T23:03:39.434Z,2.15
2023-02-03T23:05:40.929Z,2.17
2023-02-03T23:07:42.426Z,2.29
2023-02-03T23:09:43.895Z,2.36
2023-02-03T23:11:45.481Z,2.49
2023-02-03T23:13:48.758Z,2.63
2023-02-03T23:15:50.326Z,2.75
2023-02-03T23:17:51.898Z,2.83
2023-02-03T23:19:53.408Z,2.93
2023-02-03T23:21:54.902Z,2.98
2023-02-03T23:23:56.391Z,2.98
2023-02-03T23:25:57.891Z,3.00
2023-02-03T23:27:59.422Z,3.04
2023-02-03T23:30:00.871Z,3.08
2023-02-03T23:32:02.926Z,3.08
2023-02-03T23:34:23.005Z,3.06
2023-02-03T23:36:24.481Z,3.00
2023-02-03T23:38:26.017Z,2.94
2023-02-03T23:40:27.503Z,2.92
2023-02-03T23:42:29.002Z,2.89
2023-02-03T23:44:30.430Z,2.91
2023-02-03T23:46:31.906Z,2.92
2023-02-03T23:48:33.413Z,3.01
2023-02-03T23:50:34.965Z,3.00
2023-02-03T23:52:36.716Z,3.00
2023-02-03T23:54:38.183Z,2.99
2023-02-03T23:56:39.646Z,2.96
2023-02-03T23:58:41.246Z,2.88
